Time;durP1;ratioP1;P1;durP2;ratioP2;P2;SDS_P1;SDS_P2;PMS_P1;PMS_P2;Temp;Humidity;BMP_temperature;BMP_pressure;BME280_temperature;BME280_humidity;BME280_pressure;Samples;Min_cycle;Max_cycle;Signal;HPM_P1;HPM_P2
2022/11/22 00:00:56;;;;;;;26.50;3.70;;;;;;;20.94;62.67;97902.22;7314753;19;129560;-35
2022/11/22 00:03:21;;;;;;;15.40;2.75;;;;;;;20.82;62.80;97874.91;7315264;19;129180;-38
2022/11/22 00:05:47;;;;;;;27.85;3.63;;;;;;;20.89;62.83;97891.50;7316214;19;129169;-35
2022/11/22 00:08:12;;;;;;;37.05;4.50;;;;;;;20.85;62.98;97889.41;7315883;19;129680;-37
2022/11/22 00:10:37;;;;;;;49.42;5.38;;;;;;;20.75;63.68;97863.53;7315041;19;130187;-37
2022/11/22 00:13:03;;;;;;;27.88;3.78;;;;;;;20.81;63.76;97888.16;7313570;19;131038;-34
2022/11/22 00:15:29;;;;;;;21.98;3.10;;;;;;;20.77;63.41;97879.84;7316493;19;129869;-33
2022/11/22 00:17:54;;;;;;;44.58;5.00;;;;;;;20.76;63.33;97877.44;7316890;19;130378;-35
2022/11/22 00:20:20;;;;;;;24.80;3.37;;;;;;;20.71;63.55;97867.50;7317598;19;129632;-36
2022/11/22 00:22:45;;;;;;;13.93;2.88;;;;;;;20.61;63.91;97851.25;7313171;19;130197;-31
2022/11/22 00:25:12;;;;;;;44.78;4.97;;;;;;;20.68;63.94;97873.06;7315809;19;131078;-35
2022/11/22 00:27:37;;;;;;;24.50;3.17;;;;;;;20.73;63.70;97868.13;7317108;19;128951;-34
2022/11/22 00:30:04;;;;;;;32.65;4.10;;;;;;;20.72;63.35;97843.00;7317059;19;129320;-33
2022/11/22 00:32:29;;;;;;;18.80;3.03;;;;;;;20.87;63.77;97856.09;7314583;19;130897;-37
2022/11/22 00:34:54;;;;;;;12.20;2.22;;;;;;;20.97;63.03;97862.75;7316589;19;128960;-35
2022/11/22 00:37:19;;;;;;;25.17;3.20;;;;;;;21.04;62.60;97847.94;7315156;19;128907;-34
2022/11/22 00:39:45;;;;;;;49.05;5.00;;;;;;;21.24;62.03;97843.84;7315584;19;130075;-38
2022/11/22 00:42:10;;;;;;;51.73;5.57;;;;;;;21.31;61.99;97841.31;7310294;19;131572;-37
2022/11/22 00:44:35;;;;;;;32.10;4.03;;;;;;;21.43;61.98;97832.03;7313818;19;129576;-37
2022/11/22 00:47:01;;;;;;;24.48;2.95;;;;;;;21.51;61.81;97835.38;7315759;19;129844;-35
2022/11/22 00:49:26;;;;;;;22.67;3.00;;;;;;;21.65;61.09;97837.13;7315536;19;130524;-34
2022/11/22 00:51:52;;;;;;;19.70;2.97;;;;;;;21.77;60.75;97840.94;7315333;19;129246;-33
2022/11/22 00:54:17;;;;;;;18.60;2.90;;;;;;;21.85;59.94;97847.88;7311757;19;130002;-37
2022/11/22 00:56:42;;;;;;;33.80;4.03;;;;;;;21.87;59.65;97841.47;7316831;19;129046;-34
2022/11/22 00:59:08;;;;;;;75.63;7.18;;;;;;;21.85;60.01;97853.09;7314613;19;129425;-35
2022/11/22 01:01:33;;;;;;;14.43;2.70;;;;;;;21.83;59.89;97857.72;7312747;19;129721;-38
2022/11/22 01:03:59;;;;;;;55.03;5.65;;;;;;;21.79;60.66;97849.44;7310905;19;129044;-34
2022/11/22 01:06:24;;;;;;;29.88;3.72;;;;;;;21.73;60.10;97855.34;7316715;19;128960;-34
2022/11/22 01:08:49;;;;;;;25.73;3.47;;;;;;;21.68;60.55;97851.69;7315966;19;130529;-36
2022/11/22 01:11:16;;;;;;;27.33;3.58;;;;;;;21.59;60.63;97858.81;7315551;19;130804;-36
2022/11/22 01:13:42;;;;;;;24.67;3.50;;;;;;;21.52;61.16;97857.91;7311520;19;130203;-35
2022/11/22 01:16:09;;;;;;;19.23;2.88;;;;;;;21.51;61.53;97865.91;7314913;19;129292;-35
2022/11/22 01:18:35;;;;;;;25.42;3.35;;;;;;;21.42;61.37;97862.59;7313527;19;129380;-34
2022/11/22 01:21:00;;;;;;;27.05;3.45;;;;;;;21.34;61.61;97854.84;7315264;19;129690;-36
2022/11/22 01:23:26;;;;;;;42.72;4.72;;;;;;;21.25;62.40;97835.03;7310943;19;128987;-36
2022/11/22 01:25:51;;;;;;;40.38;4.28;;;;;;;21.29;61.59;97838.88;7316358;19;130686;-33
2022/11/22 01:28:17;;;;;;;6.13;1.92;;;;;;;21.19;62.19;97846.16;7314874;19;129972;-31
2022/11/22 01:30:43;;;;;;;31.45;3.55;;;;;;;21.14;62.03;97847.72;7313909;19;130705;-34
2022/11/22 01:33:09;;;;;;;5.35;1.90;;;;;;;21.09;62.52;97843.00;7316146;19;129572;-34
2022/11/22 01:35:35;;;;;;;35.70;3.70;;;;;;;21.04;63.10;97832.28;7309098;19;129919;-32
2022/11/22 01:38:00;;;;;;;27.83;3.43;;;;;;;21.00;62.73;97830.22;7316339;19;130043;-35
2022/11/22 01:40:26;;;;;;;40.67;4.40;;;;;;;20.96;63.07;97824.50;7313929;19;129846;-34
2022/11/22 01:42:56;;;;;;;29.65;3.67;;;;;;;20.90;62.78;97827.00;7314720;19;129343;-33
2022/11/22 01:45:28;;;;;;;30.38;3.65;;;;;;;20.88;63.60;97829.81;7311995;19;129876;-32
2022/11/22 01:48:04;;;;;;;29.10;3.55;;;;;;;20.88;63.68;97832.41;7313999;19;129756;-33
2022/11/22 01:50:34;;;;;;;45.47;4.88;;;;;;;20.92;63.28;97820.63;7314119;19;130345;-34
2022/11/22 01:53:05;;;;;;;21.33;3.05;;;;;;;21.01;62.94;97831.81;7315119;19;129154;-34
2022/11/22 01:55:32;;;;;;;25.85;3.28;;;;;;;21.08;62.71;97833.56;7311171;19;130442;-34
2022/11/22 01:57:59;;;;;;;23.98;3.10;;;;;;;21.14;62.33;97830.22;7314564;19;130088;-34
2022/11/22 02:00:25;;;;;;;31.10;3.60;;;;;;;21.26;62.00;97831.41;7311212;19;129537;-33
2022/11/22 02:02:54;;;;;;;21.30;3.17;;;;;;;21.35;62.17;97830.34;7311772;19;129513;-33
2022/11/22 02:05:23;;;;;;;58.30;5.80;;;;;;;21.44;61.48;97833.63;7312586;19;130089;-38
2022/11/22 02:07:55;;;;;;;25.17;3.30;;;;;;;21.56;61.17;97825.19;7309892;19;130330;-33
2022/11/22 02:10:24;;;;;;;24.10;2.85;;;;;;;21.65;60.75;97824.06;7313370;19;129318;-37
2022/11/22 02:12:55;;;;;;;25.30;3.03;;;;;;;21.75;61.05;97819.34;7313909;19;130198;-38
2022/11/22 02:15:20;;;;;;;38.45;4.03;;;;;;;21.91;60.14;97816.53;7314313;19;130422;-34
2022/11/22 02:17:45;;;;;;;24.45;3.03;;;;;;;21.80;59.74;97803.97;7313277;19;129232;-36
2022/11/22 02:20:11;;;;;;;36.13;3.88;;;;;;;21.90;59.81;97820.16;7315172;19;129785;-32
2022/11/22 02:22:47;;;;;;;37.33;4.37;;;;;;;21.86;59.89;97812.88;7311351;19;128874;-33
2022/11/22 02:25:18;;;;;;;33.97;3.97;;;;;;;21.87;60.24;97811.88;7313443;19;129038;-32
2022/11/22 02:27:44;;;;;;;86.07;7.97;;;;;;;21.81;60.45;97805.59;7305219;19;131050;-36
2022/11/22 02:30:10;;;;;;;28.30;3.63;;;;;;;21.77;60.67;97804.34;7310614;19;130375;-32
2022/11/22 02:32:35;;;;;;;46.75;4.70;;;;;;;21.67;60.63;97802.97;7310899;19;129072;-35
2022/11/22 02:35:01;;;;;;;25.27;3.17;;;;;;;21.61;60.98;97799.28;7313749;19;129017;-33
2022/11/22 02:37:30;;;;;;;19.52;2.78;;;;;;;21.55;61.18;97799.22;7312289;19;129633;-34
2022/11/22 02:39:59;;;;;;;23.65;2.78;;;;;;;21.48;61.59;97793.09;7311075;19;129410;-32
2022/11/22 02:42:27;;;;;;;21.92;2.95;;;;;;;21.41;61.38;97806.06;7311223;19;129184;-34
2022/11/22 02:44:53;;;;;;;36.35;3.50;;;;;;;21.37;61.39;97799.56;7305763;19;130306;-34
2022/11/22 02:47:18;;;;;;;14.57;2.65;;;;;;;21.28;61.94;97803.28;7313581;19;129377;-34
2022/11/22 02:49:43;;;;;;;24.08;2.67;;;;;;;21.24;62.36;97795.97;7310428;19;129651;-31
2022/11/22 02:52:09;;;;;;;52.60;5.23;;;;;;;21.18;62.23;97794.91;7309518;19;129045;-32
2022/11/22 02:54:34;;;;;;;20.10;2.90;;;;;;;21.12;62.55;97803.44;7311273;19;129504;-36
2022/11/22 02:57:02;;;;;;;36.58;3.78;;;;;;;21.08;62.24;97791.75;7312285;19;129154;-33
2022/11/22 02:59:27;;;;;;;24.17;2.90;;;;;;;21.03;63.01;97791.47;7310409;19;129928;-33
2022/11/22 03:01:53;;;;;;;30.13;3.75;;;;;;;21.00;63.27;97784.00;7305422;19;130652;-35
2022/11/22 03:04:24;;;;;;;30.37;3.30;;;;;;;20.97;63.27;97784.38;7307193;19;128875;-38
2022/11/22 03:06:59;;;;;;;28.13;3.28;;;;;;;20.94;63.20;97784.66;7314281;19;130422;-33
2022/11/22 03:09:26;;;;;;;26.13;3.00;;;;;;;21.00;63.42;97783.19;7318367;19;129991;-33
2022/11/22 03:11:52;;;;;;;26.48;3.17;;;;;;;21.02;62.50;97787.25;7316344;19;130252;-37
2022/11/22 03:14:17;;;;;;;23.40;3.03;;;;;;;21.10;62.46;97795.00;7316416;19;129182;-36
2022/11/22 03:16:44;;;;;;;20.70;2.92;;;;;;;21.16;62.17;97788.22;7319486;19;130861;-37
2022/11/22 03:19:10;;;;;;;21.10;2.70;;;;;;;21.26;62.36;97800.03;7319003;19;129313;-33
2022/11/22 03:21:36;;;;;;;29.60;3.60;;;;;;;21.31;61.60;97797.69;7318227;19;129163;-34
2022/11/22 03:24:02;;;;;;;42.30;4.40;;;;;;;21.45;62.03;97796.06;7313211;19;130186;-41
2022/11/22 03:26:27;;;;;;;24.70;2.72;;;;;;;21.41;61.08;97776.50;7313910;19;129782;-35
2022/11/22 03:28:53;;;;;;;38.17;3.87;;;;;;;21.58;61.11;97797.03;7318821;19;130451;-36
2022/11/22 03:31:18;;;;;;;9.83;2.20;;;;;;;21.63;60.74;97786.84;7315095;19;129606;-32
2022/11/22 03:33:43;;;;;;;32.97;3.60;;;;;;;21.83;60.60;97794.94;7318669;19;129045;-34
2022/11/22 03:36:09;;;;;;;27.25;3.20;;;;;;;21.83;60.09;97792.31;7316954;19;129163;-35
2022/11/22 03:38:34;;;;;;;20.52;2.65;;;;;;;21.90;60.06;97790.56;7319049;19;129190;-37
2022/11/22 03:41:00;;;;;;;23.85;2.80;;;;;;;21.84;59.91;97783.47;7318816;19;129432;-34
2022/11/22 03:43:25;;;;;;;24.25;2.95;;;;;;;21.82;60.03;97781.03;7316941;19;131959;-37
2022/11/22 03:45:51;;;;;;;22.98;2.83;;;;;;;21.79;60.33;97778.81;7316292;19;130326;-32
2022/11/22 03:48:17;;;;;;;54.13;5.38;;;;;;;21.72;60.62;97775.28;7316564;19;130645;-35
2022/11/22 03:50:42;;;;;;;20.33;3.13;;;;;;;21.67;60.54;97772.41;7316142;19;130922;-34
2022/11/22 03:53:08;;;;;;;24.70;3.10;;;;;;;21.60;60.68;97776.72;7316923;19;129024;-38
2022/11/22 03:55:33;;;;;;;20.03;2.77;;;;;;;21.54;61.45;97761.78;7317716;19;129619;-32
2022/11/22 03:57:59;;;;;;;25.60;3.07;;;;;;;21.49;61.60;97758.09;7317380;19;131019;-34
2022/11/22 04:00:24;;;;;;;27.80;3.00;;;;;;;21.51;60.97;97772.63;7318238;19;128812;-34
2022/11/22 04:02:49;;;;;;;52.17;4.97;;;;;;;21.59;61.10;97767.28;7318129;19;129054;-35
2022/11/22 04:05:15;;;;;;;35.10;3.78;;;;;;;21.73;60.53;97770.84;7316620;19;129465;-35
2022/11/22 04:07:40;;;;;;;39.03;4.43;;;;;;;21.89;60.22;97766.25;7316660;19;129744;-34
2022/11/22 04:10:06;;;;;;;27.58;3.42;;;;;;;22.02;59.48;97765.53;7318575;19;129011;-35
2022/11/22 04:12:32;;;;;;;26.40;3.03;;;;;;;22.15;59.55;97754.41;7315768;19;129232;-38
2022/11/22 04:15:06;;;;;;;22.30;2.80;;;;;;;22.24;59.04;97751.47;7317195;19;129331;-32
2022/11/22 04:17:46;;;;;;;44.97;4.63;;;;;;;22.22;58.85;97747.41;7317018;19;130342;-34
2022/11/22 04:23:10;;;;;;;38.80;4.03;;;;;;;22.38;58.24;97755.00;7317654;19;129463;-37
2022/11/22 04:25:38;;;;;;;29.45;3.40;;;;;;;22.34;59.00;97753.75;7316577;19;129144;-35
2022/11/22 04:28:05;;;;;;;56.85;5.68;;;;;;;22.38;58.69;97749.78;7316094;19;131869;-34
2022/11/22 04:33:15;;;;;;;40.20;4.00;;;;;;;22.26;59.34;97741.63;7315288;19;129736;-35
2022/11/22 04:35:42;;;;;;;37.77;4.07;;;;;;;22.17;59.62;97736.69;7314297;19;130339;-38
2022/11/22 04:38:08;;;;;;;32.15;3.75;;;;;;;22.10;59.66;97735.84;7314816;19;131116;-37
2022/11/22 04:40:34;;;;;;;24.00;3.00;;;;;;;22.03;59.41;97734.97;7313339;19;129234;-32
2022/11/22 04:45:45;;;;;;;22.25;2.67;;;;;;;21.84;60.30;97734.59;7315621;19;129223;-38
2022/11/22 04:48:11;;;;;;;31.98;3.40;;;;;;;21.75;60.27;97729.63;7314814;19;131014;-32
2022/11/22 04:53:22;;;;;;;37.67;3.75;;;;;;;21.61;61.25;97747.00;7317812;19;128998;-34
2022/11/22 04:55:47;;;;;;;32.85;3.53;;;;;;;21.55;60.91;97742.47;7312776;19;130984;-37
2022/11/22 04:58:13;;;;;;;12.88;2.05;;;;;;;21.44;61.48;97732.50;7314313;19;130264;-35
2022/11/22 05:00:39;;;;;;;45.15;4.75;;;;;;;21.40;61.92;97722.59;7309965;19;129576;-34
2022/11/22 05:03:05;;;;;;;25.40;3.15;;;;;;;21.24;61.86;97710.53;7315702;19;129268;-33
2022/11/22 05:05:34;;;;;;;33.03;3.80;;;;;;;21.26;62.41;97721.63;7313645;19;129170;-33
2022/11/22 05:07:59;;;;;;;18.52;2.47;;;;;;;21.20;61.92;97717.16;7316971;19;130407;-34
2022/11/22 05:10:24;;;;;;;22.38;2.92;;;;;;;21.17;62.10;97714.88;7308719;19;130342;-34
2022/11/22 05:12:50;;;;;;;17.70;2.57;;;;;;;21.09;61.17;97714.97;7314697;19;129085;-34
2022/11/22 05:15:15;;;;;;;25.83;3.35;;;;;;;21.05;60.96;97712.91;7315395;19;129336;-35
2022/11/22 05:17:41;;;;;;;52.55;5.32;;;;;;;21.04;61.38;97719.16;7314309;19;129592;-32
2022/11/22 05:20:08;;;;;;;38.78;4.38;;;;;;;20.99;62.61;97719.66;7311099;19;129103;-38
2022/11/22 05:25:17;;;;;;;24.17;2.90;;;;;;;20.92;62.73;97731.81;7310706;19;129053;-32
2022/11/22 05:27:43;;;;;;;31.55;3.65;;;;;;;20.85;63.29;97712.63;7315212;19;129420;-34
2022/11/22 05:30:08;;;;;;;26.80;3.17;;;;;;;20.92;63.29;97728.38;7312996;19;129297;-37
2022/11/22 05:32:34;;;;;;;21.70;2.50;;;;;;;20.87;62.70;97721.09;7313485;19;128803;-32
2022/11/22 05:34:59;;;;;;;28.73;3.42;;;;;;;20.89;62.47;97719.09;7311207;19;129558;-37
2022/11/22 05:37:25;;;;;;;13.05;2.35;;;;;;;20.94;63.22;97737.66;7313780;19;130648;-39
2022/11/22 05:39:51;;;;;;;24.08;2.80;;;;;;;20.92;62.53;97742.28;7314357;19;129486;-35
2022/11/22 05:42:16;;;;;;;22.02;3.28;;;;;;;20.97;62.48;97745.19;7312868;19;129214;-33
2022/11/22 05:44:42;;;;;;;25.47;3.07;;;;;;;21.03;62.59;97746.25;7312653;19;130119;-33
2022/11/22 05:47:08;;;;;;;31.08;3.50;;;;;;;21.11;62.28;97749.56;7314053;19;129384;-34
2022/11/22 05:49:33;;;;;;;18.77;2.70;;;;;;;21.22;62.27;97746.50;7312910;19;129155;-34
2022/11/22 05:51:59;;;;;;;12.80;2.42;;;;;;;21.30;61.46;97741.19;7314025;19;128996;-36
2022/11/22 05:54:24;;;;;;;23.02;2.67;;;;;;;21.46;61.08;97733.13;7314606;19;129451;-34
2022/11/22 05:56:50;;;;;;;31.90;3.47;;;;;;;21.41;61.32;97719.00;7312808;19;130487;-39
2022/11/22 05:59:15;;;;;;;39.88;4.03;;;;;;;21.60;61.13;97736.72;7310519;19;129423;-33
2022/11/22 06:01:40;;;;;;;55.25;5.35;;;;;;;21.63;60.55;97724.09;7306050;19;129064;-34
2022/11/22 06:04:06;;;;;;;36.72;3.75;;;;;;;21.74;60.14;97733.22;7308689;19;129396;-35
2022/11/22 06:06:31;;;;;;;28.85;3.28;;;;;;;21.81;60.37;97742.81;7308969;19;129719;-38
2022/11/22 06:08:58;;;;;;;37.23;3.63;;;;;;;21.85;60.08;97744.03;7310370;19;129898;-35
2022/11/22 06:11:24;;;;;;;;;;;;;;;21.92;59.53;97744.94;7311678;19;129508;-37
2022/11/22 06:13:55;;;;;;;43.72;4.53;;;;;;;21.98;59.59;97744.16;7311278;19;129049;-32
2022/11/22 06:16:21;;;;;;;23.10;2.97;;;;;;;22.00;59.33;97748.44;7310955;19;129818;-34
2022/11/22 06:18:47;;;;;;;26.20;2.80;;;;;;;22.01;59.43;97752.66;7314066;19;129191;-34
2022/11/22 06:21:15;;;;;;;10.07;1.93;;;;;;;21.88;59.66;97748.91;7311721;19;129038;-37
2022/11/22 06:23:41;;;;;;;45.92;4.72;;;;;;;21.95;59.80;97760.25;7312186;19;129901;-38
2022/11/22 06:26:09;;;;;;;27.58;3.08;;;;;;;21.96;59.81;97771.53;7308352;19;132110;-38
2022/11/22 06:28:36;;;;;;;24.50;2.88;;;;;;;21.96;59.72;97772.31;7309417;19;130004;-35
2022/11/22 06:31:13;;;;;;;43.85;3.83;;;;;;;22.01;59.26;97774.41;7310601;19;128881;-38
2022/11/22 06:33:39;;;;;;;34.20;3.60;;;;;;;22.00;59.84;97771.97;7311175;19;130151;-35
2022/11/22 06:36:13;;;;;;;27.60;3.42;;;;;;;22.03;59.42;97774.22;7310415;19;129836;-35
2022/11/22 06:38:40;;;;;;;24.75;3.22;;;;;;;22.05;59.07;97775.63;7312012;19;129240;-34
2022/11/22 06:41:09;;;;;;;37.45;3.83;;;;;;;22.05;59.45;97769.63;7314199;19;129067;-34
2022/11/22 06:43:37;;;;;;;46.28;4.28;;;;;;;22.05;59.82;97769.63;7317218;19;129111;-35
2022/11/22 06:46:04;;;;;;;27.13;3.10;;;;;;;22.09;59.42;97768.22;7319707;19;129736;-37
2022/11/22 06:48:33;;;;;;;25.95;3.10;;;;;;;22.12;59.05;97773.09;7319098;19;128840;-34
2022/11/22 06:51:13;;;;;;;18.88;3.15;;;;;;;22.02;59.17;97762.13;7317396;19;130893;-33
2022/11/22 06:53:39;;;;;;;27.77;3.22;;;;;;;22.13;59.21;97793.03;7319176;19;129254;-37
2022/11/22 06:56:06;;;;;;;26.92;2.63;;;;;;;21.93;59.12;97767.47;7313626;19;129480;-36
2022/11/22 06:58:32;;;;;;;37.88;3.97;;;;;;;22.04;59.66;97789.72;7314596;19;129090;-36
2022/11/22 07:01:08;;;;;;;35.92;3.80;;;;;;;22.03;59.41;97787.31;7317051;19;131146;-33
2022/11/22 07:03:35;;;;;;;50.90;4.70;;;;;;;21.90;59.87;97778.31;7316993;19;129189;-34
2022/11/22 07:06:01;;;;;;;24.80;3.03;;;;;;;22.01;59.59;97787.50;7318423;19;129446;-31
2022/11/22 07:08:26;;;;;;;28.17;3.23;;;;;;;21.92;59.43;97770.28;7316457;19;129201;-34
2022/11/22 07:10:52;;;;;;;22.02;2.58;;;;;;;21.85;60.01;97775.44;7317362;19;130229;-35
2022/11/22 07:13:17;;;;;;;31.83;3.40;;;;;;;21.80;60.57;97788.25;7314054;19;129118;-35
2022/11/22 07:15:43;;;;;;;75.35;6.80;;;;;;;21.71;60.51;97784.13;7315103;19;129463;-34
2022/11/22 07:18:08;;;;;;;38.25;4.55;;;;;;;21.66;60.81;97783.03;7313821;19;129894;-34
2022/11/22 07:20:34;;;;;;;119.43;10.53;;;;;;;21.63;60.70;97784.22;7308451;19;130124;-37
2022/11/22 07:22:59;;;;;;;106.60;9.43;;;;;;;21.58;60.79;97798.84;7296506;19;131041;-37
2022/11/22 07:25:25;;;;;;;30.52;3.33;;;;;;;21.53;61.20;97795.97;7294310;19;131356;-33
2022/11/22 07:27:51;;;;;;;29.60;3.40;;;;;;;21.51;61.65;97798.75;7312385;19;130684;-31
2022/11/22 07:30:17;;;;;;;70.03;6.30;;;;;;;21.46;61.29;97800.28;7313219;19;130118;-34
2022/11/22 07:32:46;;;;;;;30.43;3.33;;;;;;;21.43;61.76;97801.47;7316610;19;130631;-33
2022/11/22 07:35:11;;;;;;;41.95;4.40;;;;;;;21.44;61.47;97784.78;7316573;19;129212;-36
2022/11/22 07:37:36;;;;;;;46.83;4.40;;;;;;;21.34;61.55;97796.50;7317038;19;129742;-37
2022/11/22 07:40:02;;;;;;;29.25;3.28;;;;;;;21.32;61.49;97799.31;7318919;19;128946;-37
2022/11/22 07:42:28;;;;;;;28.70;3.37;;;;;;;21.33;62.20;97800.94;7315453;19;129515;-36
2022/11/22 07:44:53;;;;;;;25.20;2.85;;;;;;;21.29;61.72;97812.75;7316045;19;129195;-35
2022/11/22 07:47:18;;;;;;;73.90;6.70;;;;;;;21.24;62.13;97819.50;7311212;19;130200;-40
2022/11/22 07:49:44;;;;;;;25.77;2.97;;;;;;;21.23;62.45;97821.31;7315323;19;128809;-40
2022/11/22 07:52:09;;;;;;;22.38;2.67;;;;;;;21.24;62.63;97817.69;7313362;19;129118;-34
2022/11/22 07:54:34;;;;;;;35.03;3.45;;;;;;;21.21;61.81;97819.84;7316427;19;129804;-32
2022/11/22 07:57:00;;;;;;;28.75;2.88;;;;;;;21.18;61.96;97813.19;7316111;19;130204;-35
2022/11/22 07:59:25;;;;;;;13.10;2.00;;;;;;;21.09;62.78;97809.03;7316914;19;129319;-35
2022/11/22 08:01:51;;;;;;;22.90;2.58;;;;;;;21.15;62.51;97831.84;7315911;19;129367;-34
2022/11/22 08:04:16;;;;;;;30.10;3.60;;;;;;;21.13;62.79;97825.19;7316143;19;129394;-35
2022/11/22 08:06:41;;;;;;;33.65;3.30;;;;;;;21.09;62.47;97824.72;7317267;19;130070;-32
2022/11/22 08:09:06;;;;;;;23.13;2.60;;;;;;;21.07;62.51;97824.09;7318291;19;129387;-34
2022/11/22 08:11:32;;;;;;;24.05;2.78;;;;;;;21.08;62.73;97832.75;7313929;19;130425;-42
2022/11/22 08:13:57;;;;;;;109.45;9.15;;;;;;;21.07;62.84;97831.94;7313644;19;130661;-36
2022/11/22 08:16:22;;;;;;;55.72;5.65;;;;;;;21.09;63.21;97829.94;7313013;19;130787;-40
2022/11/22 08:18:48;;;;;;;22.92;2.78;;;;;;;21.07;62.75;97838.97;7314961;19;130214;-34
2022/11/22 08:21:15;;;;;;;22.55;2.53;;;;;;;21.06;63.21;97838.16;7316822;19;130094;-34
2022/11/22 08:23:41;;;;;;;29.13;3.17;;;;;;;21.10;62.85;97842.03;7317885;19;130549;-40
2022/11/22 08:26:11;;;;;;;20.45;2.50;;;;;;;21.06;63.27;97840.75;7317373;19;129947;-38
2022/11/22 08:28:36;;;;;;;19.75;2.47;;;;;;;21.02;63.01;97849.97;7316298;19;129063;-35
2022/11/22 08:31:06;;;;;;;52.53;5.15;;;;;;;20.96;62.75;97829.72;7316085;19;129135;-33
2022/11/22 08:33:31;;;;;;;24.67;2.65;;;;;;;20.98;62.79;97833.00;7317750;19;130933;-38
2022/11/22 08:35:56;;;;;;;31.45;3.40;;;;;;;21.10;62.48;97856.88;7316606;19;129012;-32
2022/11/22 08:38:22;;;;;;;27.77;2.93;;;;;;;21.13;62.39;97865.19;7317654;19;128911;-34
2022/11/22 08:40:47;;;;;;;26.33;2.92;;;;;;;21.16;62.63;97864.00;7316762;19;130106;-36
2022/11/22 08:43:12;;;;;;;25.27;2.78;;;;;;;21.17;62.85;97863.81;7317783;19;129285;-32
2022/11/22 08:45:38;;;;;;;28.75;3.08;;;;;;;21.20;62.25;97857.44;7314085;19;130510;-38
2022/11/22 08:48:03;;;;;;;21.00;2.50;;;;;;;21.18;62.53;97839.34;7318042;19;129527;-32
2022/11/22 08:50:29;;;;;;;25.37;3.07;;;;;;;21.20;60.24;97850.44;7316540;19;129128;-32
2022/11/22 08:52:54;;;;;;;21.13;2.40;;;;;;;21.07;60.17;97847.63;7317779;19;130315;-34
2022/11/22 08:55:19;;;;;;;33.80;3.72;;;;;;;21.14;59.63;97869.41;7316315;19;129375;-34
2022/11/22 08:57:44;;;;;;;54.70;5.30;;;;;;;21.15;59.93;97881.50;7315696;19;129024;-32
2022/11/22 09:00:10;;;;;;;32.25;3.72;;;;;;;21.19;59.82;97867.09;7315074;19;130849;-36
2022/11/22 09:02:36;;;;;;;22.07;2.57;;;;;;;21.20;59.88;97870.50;7314555;19;130349;-37
2022/11/22 09:05:02;;;;;;;27.08;2.95;;;;;;;21.21;59.75;97869.50;7310523;19;129077;-34
2022/11/22 09:07:28;;;;;;;31.00;3.35;;;;;;;21.19;58.97;97856.63;7316193;19;129223;-34
2022/11/22 09:09:54;;;;;;;;;;;;;;;21.21;58.97;97859.88;7317281;19;130193;-35
2022/11/22 09:12:19;;;;;;;42.07;4.67;;;;;;;21.37;58.81;97880.59;7309992;19;129317;-31
2022/11/22 09:14:46;;;;;;;36.25;3.78;;;;;;;21.42;58.28;97875.66;7314438;19;130616;-35
2022/11/22 09:17:11;;;;;;;;;;;;;;;21.45;58.86;97864.84;7316179;19;129087;-33
2022/11/22 09:19:37;;;;;;;27.90;2.77;;;;;;;21.53;58.18;97870.00;7315584;19;129346;-35
2022/11/22 09:22:02;;;;;;;33.55;3.28;;;;;;;21.47;57.76;97856.84;7314721;19;130006;-35
2022/11/22 09:24:27;;;;;;;13.10;1.92;;;;;;;21.60;57.73;97876.09;7313211;19;128877;-34
2022/11/22 09:26:53;;;;;;;27.30;2.78;;;;;;;21.68;58.11;97878.63;7313229;19;130072;-35
2022/11/22 09:29:18;;;;;;;46.10;4.90;;;;;;;21.73;57.47;97885.94;7311510;19;129412;-35
2022/11/22 09:31:43;;;;;;;56.13;5.47;;;;;;;21.70;57.40;97892.34;7308926;19;130554;-35
2022/11/22 09:34:09;;;;;;;40.20;4.17;;;;;;;21.64;57.42;97877.38;7309123;19;131067;-39
2022/11/22 09:36:34;;;;;;;28.73;3.37;;;;;;;21.71;57.61;97893.97;7315248;19;129092;-34
2022/11/22 09:39:00;;;;;;;18.47;2.23;;;;;;;21.57;57.02;97886.94;7314585;19;130326;-32
2022/11/22 09:41:46;;;;;;;28.40;3.35;;;;;;;21.63;56.59;97904.53;7314300;19;129165;-36
2022/11/22 09:44:36;;;;;;;23.20;2.80;;;;;;;21.59;56.68;97905.88;7314595;19;129051;-34
2022/11/22 09:47:30;;;;;;;30.77;3.35;;;;;;;21.54;56.79;97908.22;7315093;19;128841;-35
2022/11/22 09:50:21;;;;;;;23.48;3.05;;;;;;;21.59;57.31;97911.09;7316029;19;129779;-36
2022/11/22 09:52:58;;;;;;;17.55;2.40;;;;;;;21.60;57.17;97910.09;7315619;19;129268;-34
2022/11/22 09:55:52;;;;;;;11.60;2.28;;;;;;;21.62;57.35;97910.72;7312389;19;129230;-35
2022/11/22 09:58:24;;;;;;;30.90;3.30;;;;;;;21.70;56.62;97900.19;7313361;19;129390;-34
2022/11/22 10:00:49;;;;;;;55.50;5.28;;;;;;;21.71;56.59;97898.38;7313879;19;129544;-38
2022/11/22 10:03:33;;;;;;;30.10;3.25;;;;;;;21.69;56.40;97888.09;7313746;19;129920;-34
2022/11/22 10:06:04;;;;;;;27.20;3.20;;;;;;;21.71;56.45;97883.50;7312243;19;129135;-35
2022/11/22 10:08:41;;;;;;;23.88;2.85;;;;;;;21.78;56.69;97900.13;7313856;19;128790;-35
2022/11/22 10:11:40;;;;;;;32.47;3.60;;;;;;;21.81;56.22;97898.94;7314293;19;131490;-33
2022/11/22 10:14:21;;;;;;;20.40;2.63;;;;;;;21.83;56.68;97908.22;7314945;19;129529;-35
2022/11/22 10:17:18;;;;;;;8.90;1.70;;;;;;;21.77;56.36;97895.88;7314610;19;128706;-33
2022/11/22 10:19:57;;;;;;;27.30;3.05;;;;;;;21.80;55.80;97908.59;7312253;19;129340;-35
2022/11/22 10:22:27;;;;;;;52.58;5.13;;;;;;;21.80;55.92;97919.06;7311277;19;130203;-33
2022/11/22 10:24:52;;;;;;;26.40;2.97;;;;;;;21.78;56.53;97915.00;7312856;19;129291;-37
2022/11/22 10:27:17;;;;;;;29.60;3.38;;;;;;;21.71;56.54;97914.91;7314352;19;129130;-35
2022/11/22 10:30:05;;;;;;;26.35;3.20;;;;;;;21.68;56.30;97935.38;7313862;19;129252;-35
2022/11/22 10:32:43;;;;;;;27.93;3.27;;;;;;;21.63;56.50;97938.53;7311068;19;130039;-36
2022/11/22 10:35:21;;;;;;;26.33;2.90;;;;;;;21.56;56.52;97921.09;7314120;19;129139;-39
2022/11/22 10:38:28;;;;;;;31.27;3.45;;;;;;;21.66;56.68;97937.34;7312763;19;128945;-37
2022/11/22 10:41:32;;;;;;;23.85;2.83;;;;;;;21.69;56.88;97939.59;7313044;19;128809;-34
2022/11/22 10:44:17;;;;;;;45.28;4.43;;;;;;;21.69;56.31;97932.56;7311580;19;129071;-35
2022/11/22 10:47:05;;;;;;;23.77;2.65;;;;;;;21.72;56.67;97921.75;7313190;19;129574;-37
2022/11/22 10:50:04;;;;;;;19.88;2.45;;;;;;;21.66;56.17;97906.78;7314047;19;129122;-34
2022/11/22 10:52:57;;;;;;;22.83;2.65;;;;;;;21.77;56.63;97914.19;7309198;19;128899;-37
2022/11/22 10:55:40;;;;;;;21.92;2.42;;;;;;;21.79;56.09;97916.63;7313208;19;129620;-35
2022/11/22 10:58:40;;;;;;;16.38;2.30;;;;;;;21.76;56.30;97912.59;7312529;19;129137;-34
2022/11/22 11:01:27;;;;;;;30.17;3.05;;;;;;;21.88;55.72;97916.34;7308732;19;129224;-37
2022/11/22 11:03:58;;;;;;;27.50;3.50;;;;;;;21.79;55.73;97906.16;7312713;19;129465;-33
2022/11/22 11:06:46;;;;;;;30.52;3.28;;;;;;;21.89;56.42;97923.22;7312018;19;129112;-37
2022/11/22 11:09:26;;;;;;;22.27;2.58;;;;;;;21.87;56.56;97925.19;7312088;19;130276;-38
2022/11/22 11:11:53;;;;;;;20.35;2.58;;;;;;;21.86;56.52;97934.06;7311415;19;128844;-35
2022/11/22 11:14:25;;;;;;;;;;;;;;;21.74;56.19;97922.38;7311362;19;129171;-35
2022/11/22 11:16:51;;;;;;;24.45;2.90;;;;;;;21.76;56.46;97936.13;7313539;19;130493;-39
2022/11/22 11:19:19;;;;;;;27.00;3.23;;;;;;;21.72;56.82;97934.00;7313042;19;129626;-35
2022/11/22 11:22:04;;;;;;;23.35;2.70;;;;;;;21.71;56.67;97925.38;7311247;19;130141;-35
2022/11/22 11:24:30;;;;;;;18.75;2.40;;;;;;;21.63;56.58;97912.38;7310874;19;129150;-35
2022/11/22 11:26:59;;;;;;;30.85;3.22;;;;;;;21.60;56.70;97906.69;7313236;19;130903;-34
2022/11/22 11:29:29;;;;;;;24.23;2.88;;;;;;;21.68;56.57;97917.84;7318718;19;129957;-39
2022/11/22 11:32:14;;;;;;;22.05;2.58;;;;;;;21.70;56.36;97918.50;7317251;19;129425;-33
2022/11/22 11:34:56;;;;;;;26.90;2.85;;;;;;;21.77;56.94;97918.59;7316078;19;129800;-36
2022/11/22 11:37:32;;;;;;;23.35;2.50;;;;;;;21.68;56.76;97894.31;7318315;19;129061;-36
2022/11/22 11:39:57;;;;;;;25.67;3.00;;;;;;;21.77;56.50;97906.34;7319272;19;129539;-31